sensor_id;sensor_type;location;lat;lon;timestamp;pressure;altitude;pressure_sealevel;temperature
73685;BMP280;61985;51.070;14.064;2022-12-29T00:01:39;98129.09;;;5.53
73685;BMP280;61985;51.070;14.064;2022-12-29T00:04:05;98127.91;;;5.61
73685;BMP280;61985;51.070;14.064;2022-12-29T00:06:31;98126.81;;;5.51
73685;BMP280;61985;51.070;14.064;2022-12-29T00:08:56;98117.72;;;5.48
73685;BMP280;61985;51.070;14.064;2022-12-29T00:11:26;98110.13;;;5.43
73685;BMP280;61985;51.070;14.064;2022-12-29T00:13:53;98113.53;;;5.47
73685;BMP280;61985;51.070;14.064;2022-12-29T00:16:39;98110.00;;;5.54
73685;BMP280;61985;51.070;14.064;2022-12-29T00:19:05;98104.09;;;5.70
73685;BMP280;61985;51.070;14.064;2022-12-29T00:21:30;98100.66;;;5.69
73685;BMP280;61985;51.070;14.064;2022-12-29T00:24:18;98097.91;;;5.77
73685;BMP280;61985;51.070;14.064;2022-12-29T00:29:45;98088.00;;;6.04
73685;BMP280;61985;51.070;14.064;2022-12-29T00:32:29;98097.41;;;6.13
73685;BMP280;61985;51.070;14.064;2022-12-29T00:35:30;98108.94;;;6.10
73685;BMP280;61985;51.070;14.064;2022-12-29T00:37:59;98110.03;;;6.12
73685;BMP280;61985;51.070;14.064;2022-12-29T00:40:45;98132.59;;;6.11
73685;BMP280;61985;51.070;14.064;2022-12-29T00:43:28;98114.53;;;6.19
73685;BMP280;61985;51.070;14.064;2022-12-29T00:46:12;98105.69;;;6.22
73685;BMP280;61985;51.070;14.064;2022-12-29T00:48:38;98114.44;;;6.26
73685;BMP280;61985;51.070;14.064;2022-12-29T00:51:21;98102.75;;;6.13
73685;BMP280;61985;51.070;14.064;2022-12-29T00:53:47;98104.94;;;6.21
73685;BMP280;61985;51.070;14.064;2022-12-29T00:56:12;98109.16;;;6.22
73685;BMP280;61985;51.070;14.064;2022-12-29T00:58:38;98105.41;;;6.16
73685;BMP280;61985;51.070;14.064;2022-12-29T01:01:05;98093.19;;;6.15
73685;BMP280;61985;51.070;14.064;2022-12-29T01:03:30;98100.34;;;6.22
73685;BMP280;61985;51.070;14.064;2022-12-29T01:05:56;98095.28;;;6.28
73685;BMP280;61985;51.070;14.064;2022-12-29T01:08:21;98093.91;;;6.43
73685;BMP280;61985;51.070;14.064;2022-12-29T01:10:57;98094.97;;;6.49
73685;BMP280;61985;51.070;14.064;2022-12-29T01:13:23;98064.91;;;6.65
73685;BMP280;61985;51.070;14.064;2022-12-29T01:15:52;98068.06;;;6.80
73685;BMP280;61985;51.070;14.064;2022-12-29T01:18:18;98079.13;;;6.82
73685;BMP280;61985;51.070;14.064;2022-12-29T01:20:43;98070.88;;;6.73
73685;BMP280;61985;51.070;14.064;2022-12-29T01:23:09;98066.38;;;6.66
73685;BMP280;61985;51.070;14.064;2022-12-29T01:25:34;98072.63;;;6.59
73685;BMP280;61985;51.070;14.064;2022-12-29T01:27:59;98079.44;;;6.64
73685;BMP280;61985;51.070;14.064;2022-12-29T01:30:25;98076.81;;;6.60
73685;BMP280;61985;51.070;14.064;2022-12-29T01:32:50;98077.28;;;6.55
73685;BMP280;61985;51.070;14.064;2022-12-29T01:35:15;98077.69;;;6.54
73685;BMP280;61985;51.070;14.064;2022-12-29T01:37:41;98085.88;;;6.43
73685;BMP280;61985;51.070;14.064;2022-12-29T01:40:06;98084.50;;;6.35
73685;BMP280;61985;51.070;14.064;2022-12-29T01:42:32;98085.09;;;6.46
73685;BMP280;61985;51.070;14.064;2022-12-29T01:45:00;98084.03;;;6.40
73685;BMP280;61985;51.070;14.064;2022-12-29T01:50:11;98073.13;;;6.27
73685;BMP280;61985;51.070;14.064;2022-12-29T01:52:40;98072.75;;;6.29
73685;BMP280;61985;51.070;14.064;2022-12-29T01:55:09;98086.63;;;6.20
73685;BMP280;61985;51.070;14.064;2022-12-29T01:57:38;98074.00;;;6.20
73685;BMP280;61985;51.070;14.064;2022-12-29T02:00:08;98080.06;;;6.24
73685;BMP280;61985;51.070;14.064;2022-12-29T02:02:34;98072.50;;;6.19
73685;BMP280;61985;51.070;14.064;2022-12-29T02:05:04;98074.38;;;6.22
73685;BMP280;61985;51.070;14.064;2022-12-29T02:07:32;98070.72;;;6.36
73685;BMP280;61985;51.070;14.064;2022-12-29T02:09:58;98077.69;;;6.30
73685;BMP280;61985;51.070;14.064;2022-12-29T02:12:25;98073.13;;;6.27
73685;BMP280;61985;51.070;14.064;2022-12-29T02:14:55;98069.38;;;6.24
73685;BMP280;61985;51.070;14.064;2022-12-29T02:17:54;98063.31;;;6.20
73685;BMP280;61985;51.070;14.064;2022-12-29T02:20:57;98056.72;;;6.25
73685;BMP280;61985;51.070;14.064;2022-12-29T02:40:23;98042.50;;;6.32
73685;BMP280;61985;51.070;14.064;2022-12-29T02:42:56;98045.63;;;6.26
73685;BMP280;61985;51.070;14.064;2022-12-29T02:48:25;98031.91;;;6.24
73685;BMP280;61985;51.070;14.064;2022-12-29T02:50:58;98041.09;;;6.23
73685;BMP280;61985;51.070;14.064;2022-12-29T02:53:25;98032.72;;;6.21
73685;BMP280;61985;51.070;14.064;2022-12-29T02:56:10;98023.91;;;6.24
73685;BMP280;61985;51.070;14.064;2022-12-29T02:58:35;98023.47;;;6.26
73685;BMP280;61985;51.070;14.064;2022-12-29T03:09:27;98019.75;;;6.43
73685;BMP280;61985;51.070;14.064;2022-12-29T03:12:11;98014.69;;;6.49
73685;BMP280;61985;51.070;14.064;2022-12-29T03:17:54;98008.53;;;6.52
73685;BMP280;61985;51.070;14.064;2022-12-29T03:20:28;98003.44;;;6.58
73685;BMP280;61985;51.070;14.064;2022-12-29T03:23:00;98012.91;;;6.62
73685;BMP280;61985;51.070;14.064;2022-12-29T03:25:35;98018.84;;;6.74
73685;BMP280;61985;51.070;14.064;2022-12-29T03:28:06;98023.78;;;6.75
73685;BMP280;61985;51.070;14.064;2022-12-29T03:30:34;98023.03;;;6.75
73685;BMP280;61985;51.070;14.064;2022-12-29T03:33:03;98022.06;;;6.65
73685;BMP280;61985;51.070;14.064;2022-12-29T03:35:33;98021.31;;;6.64
73685;BMP280;61985;51.070;14.064;2022-12-29T03:38:10;98019.03;;;6.63
73685;BMP280;61985;51.070;14.064;2022-12-29T03:40:38;98009.91;;;6.60
73685;BMP280;61985;51.070;14.064;2022-12-29T03:43:04;98018.41;;;6.55
73685;BMP280;61985;51.070;14.064;2022-12-29T03:45:30;98019.69;;;6.47
73685;BMP280;61985;51.070;14.064;2022-12-29T03:47:55;98004.09;;;6.42
73685;BMP280;61985;51.070;14.064;2022-12-29T03:50:20;98011.69;;;6.47
73685;BMP280;61985;51.070;14.064;2022-12-29T03:52:46;98007.13;;;6.44
73685;BMP280;61985;51.070;14.064;2022-12-29T03:55:11;97997.63;;;6.39
73685;BMP280;61985;51.070;14.064;2022-12-29T03:57:36;97993.88;;;6.37
73685;BMP280;61985;51.070;14.064;2022-12-29T04:00:04;97993.53;;;6.35
73685;BMP280;61985;51.070;14.064;2022-12-29T04:02:29;97994.38;;;6.28
73685;BMP280;61985;51.070;14.064;2022-12-29T04:04:55;97983.28;;;6.30
73685;BMP280;61985;51.070;14.064;2022-12-29T04:07:20;97989.13;;;6.24
73685;BMP280;61985;51.070;14.064;2022-12-29T04:09:45;97982.38;;;6.16
73685;BMP280;61985;51.070;14.064;2022-12-29T04:12:10;97978.66;;;6.10
73685;BMP280;61985;51.070;14.064;2022-12-29T04:14:36;97967.88;;;6.14
73685;BMP280;61985;51.070;14.064;2022-12-29T04:17:01;97973.56;;;6.16
73685;BMP280;61985;51.070;14.064;2022-12-29T04:19:26;97972.00;;;6.18
73685;BMP280;61985;51.070;14.064;2022-12-29T04:21:52;97968.88;;;6.23
73685;BMP280;61985;51.070;14.064;2022-12-29T04:24:17;97975.81;;;6.21
73685;BMP280;61985;51.070;14.064;2022-12-29T04:26:42;97974.69;;;6.18
73685;BMP280;61985;51.070;14.064;2022-12-29T04:29:07;97969.09;;;6.09
73685;BMP280;61985;51.070;14.064;2022-12-29T04:31:33;97975.34;;;5.99
73685;BMP280;61985;51.070;14.064;2022-12-29T04:33:58;97959.09;;;5.89
73685;BMP280;61985;51.070;14.064;2022-12-29T04:36:25;97964.41;;;5.93
73685;BMP280;61985;51.070;14.064;2022-12-29T04:38:50;97982.00;;;5.91
73685;BMP280;61985;51.070;14.064;2022-12-29T04:41:15;97979.72;;;5.89
73685;BMP280;61985;51.070;14.064;2022-12-29T04:43:40;97986.59;;;5.90
73685;BMP280;61985;51.070;14.064;2022-12-29T04:46:06;97978.25;;;5.84
73685;BMP280;61985;51.070;14.064;2022-12-29T04:48:31;97975.19;;;5.86
73685;BMP280;61985;51.070;14.064;2022-12-29T04:50:57;97969.88;;;5.82
73685;BMP280;61985;51.070;14.064;2022-12-29T04:53:22;97975.59;;;5.84
73685;BMP280;61985;51.070;14.064;2022-12-29T04:55:51;97975.22;;;5.82
73685;BMP280;61985;51.070;14.064;2022-12-29T04:58:18;97982.78;;;5.87
73685;BMP280;61985;51.070;14.064;2022-12-29T05:00:43;97986.63;;;5.86
73685;BMP280;61985;51.070;14.064;2022-12-29T05:03:08;97979.78;;;5.85
73685;BMP280;61985;51.070;14.064;2022-12-29T05:05:34;97985.94;;;5.82
73685;BMP280;61985;51.070;14.064;2022-12-29T05:07:59;97979.66;;;5.93
73685;BMP280;61985;51.070;14.064;2022-12-29T05:10:24;97984.66;;;5.91
73685;BMP280;61985;51.070;14.064;2022-12-29T05:12:50;97981.28;;;5.86
73685;BMP280;61985;51.070;14.064;2022-12-29T05:15:15;97990.59;;;6.02
73685;BMP280;61985;51.070;14.064;2022-12-29T05:17:41;97982.97;;;6.00
73685;BMP280;61985;51.070;14.064;2022-12-29T05:20:07;97988.06;;;5.95
73685;BMP280;61985;51.070;14.064;2022-12-29T05:22:32;98004.03;;;5.98
73685;BMP280;61985;51.070;14.064;2022-12-29T05:24:57;97998.38;;;5.93
73685;BMP280;61985;51.070;14.064;2022-12-29T05:27:23;98005.25;;;5.94
73685;BMP280;61985;51.070;14.064;2022-12-29T05:29:48;98010.00;;;5.82
73685;BMP280;61985;51.070;14.064;2022-12-29T05:32:14;98007.03;;;5.77
73685;BMP280;61985;51.070;14.064;2022-12-29T05:34:39;98011.25;;;5.74
73685;BMP280;61985;51.070;14.064;2022-12-29T05:37:04;97998.72;;;5.67
73685;BMP280;61985;51.070;14.064;2022-12-29T05:39:29;97990.06;;;5.60
73685;BMP280;61985;51.070;14.064;2022-12-29T05:41:55;97996.94;;;5.61
73685;BMP280;61985;51.070;14.064;2022-12-29T05:44:20;98006.91;;;5.57
73685;BMP280;61985;51.070;14.064;2022-12-29T05:46:45;98006.50;;;5.58
73685;BMP280;61985;51.070;14.064;2022-12-29T05:49:11;97992.47;;;5.50
73685;BMP280;61985;51.070;14.064;2022-12-29T05:51:36;97991.66;;;5.54
73685;BMP280;61985;51.070;14.064;2022-12-29T05:54:01;97995.47;;;5.53
73685;BMP280;61985;51.070;14.064;2022-12-29T05:56:27;97996.97;;;5.57
73685;BMP280;61985;51.070;14.064;2022-12-29T05:58:52;97991.66;;;5.54
73685;BMP280;61985;51.070;14.064;2022-12-29T06:01:17;97995.88;;;5.55
73685;BMP280;61985;51.070;14.064;2022-12-29T06:03:42;97995.88;;;5.51
73685;BMP280;61985;51.070;14.064;2022-12-29T06:06:08;97980.94;;;5.57
73685;BMP280;61985;51.070;14.064;2022-12-29T06:08:33;97989.72;;;5.58
73685;BMP280;61985;51.070;14.064;2022-12-29T06:10:59;97988.66;;;5.51
73685;BMP280;61985;51.070;14.064;2022-12-29T06:13:24;97993.28;;;5.47
73685;BMP280;61985;51.070;14.064;2022-12-29T06:15:50;97987.53;;;5.49
73685;BMP280;61985;51.070;14.064;2022-12-29T06:18:16;97985.69;;;5.46
73685;BMP280;61985;51.070;14.064;2022-12-29T06:20:41;97987.94;;;5.47
73685;BMP280;61985;51.070;14.064;2022-12-29T06:23:06;97992.56;;;5.43
73685;BMP280;61985;51.070;14.064;2022-12-29T06:25:31;97998.72;;;5.40
73685;BMP280;61985;51.070;14.064;2022-12-29T06:27:58;97984.94;;;5.42
73685;BMP280;61985;51.070;14.064;2022-12-29T06:30:23;97992.56;;;5.43
73685;BMP280;61985;51.070;14.064;2022-12-29T06:32:49;97979.66;;;5.38
73685;BMP280;61985;51.070;14.064;2022-12-29T06:35:15;97976.94;;;5.42
73685;BMP280;61985;51.070;14.064;2022-12-29T06:37:40;97982.66;;;5.44
73685;BMP280;61985;51.070;14.064;2022-12-29T06:40:05;97981.09;;;5.46
73685;BMP280;61985;51.070;14.064;2022-12-29T06:42:31;97985.31;;;5.44
73685;BMP280;61985;51.070;14.064;2022-12-29T06:44:56;97984.59;;;5.40
73685;BMP280;61985;51.070;14.064;2022-12-29T06:47:24;97983.47;;;5.37
73685;BMP280;61985;51.070;14.064;2022-12-29T06:49:49;97983.13;;;5.35
73685;BMP280;61985;51.070;14.064;2022-12-29T06:52:15;97983.06;;;5.42
73685;BMP280;61985;51.070;14.064;2022-12-29T06:54:40;97976.84;;;5.49
73685;BMP280;61985;51.070;14.064;2022-12-29T06:57:05;97969.66;;;5.46
73685;BMP280;61985;51.070;14.064;2022-12-29T06:59:31;97982.66;;;5.44
73685;BMP280;61985;51.070;14.064;2022-12-29T07:01:56;97986.06;;;5.44
73685;BMP280;61985;51.070;14.064;2022-12-29T07:04:21;97981.13;;;5.43
73685;BMP280;61985;51.070;14.064;2022-12-29T07:06:47;97973.84;;;5.43
73685;BMP280;61985;51.070;14.064;2022-12-29T07:09:12;97970.13;;;5.37
73685;BMP280;61985;51.070;14.064;2022-12-29T07:11:37;97982.06;;;5.29
73685;BMP280;61985;51.070;14.064;2022-12-29T07:14:03;97992.66;;;5.36
73685;BMP280;61985;51.070;14.064;2022-12-29T07:16:29;97999.88;;;5.39
73685;BMP280;61985;51.070;14.064;2022-12-29T07:18:55;97986.75;;;5.79
73685;BMP280;61985;51.070;14.064;2022-12-29T07:21:21;97986.88;;;5.96
73685;BMP280;61985;51.070;14.064;2022-12-29T07:23:46;97972.69;;;5.99
73685;BMP280;61985;51.070;14.064;2022-12-29T07:26:13;97981.75;;;6.05
73685;BMP280;61985;51.070;14.064;2022-12-29T07:28:39;97991.41;;;5.99
73685;BMP280;61985;51.070;14.064;2022-12-29T07:31:05;97980.03;;;5.95
73685;BMP280;61985;51.070;14.064;2022-12-29T07:33:31;97997.53;;;5.99
73685;BMP280;61985;51.070;14.064;2022-12-29T07:35:57;97998.78;;;5.91
73685;BMP280;61985;51.070;14.064;2022-12-29T07:38:23;98001.69;;;6.00
73685;BMP280;61985;51.070;14.064;2022-12-29T07:40:48;97999.19;;;5.89
73685;BMP280;61985;51.070;14.064;2022-12-29T07:43:13;98011.88;;;5.82
73685;BMP280;61985;51.070;14.064;2022-12-29T07:45:39;98013.88;;;5.78
73685;BMP280;61985;51.070;14.064;2022-12-29T07:48:05;98015.09;;;5.73
73685;BMP280;61985;51.070;14.064;2022-12-29T07:50:33;98010.09;;;5.75
73685;BMP280;61985;51.070;14.064;2022-12-29T07:52:59;98010.81;;;5.79
73685;BMP280;61985;51.070;14.064;2022-12-29T07:55:24;98015.03;;;5.77
73685;BMP280;61985;51.070;14.064;2022-12-29T07:57:49;97992.78;;;5.83
73685;BMP280;61985;51.070;14.064;2022-12-29T08:00:17;97989.28;;;5.90
73685;BMP280;61985;51.070;14.064;2022-12-29T08:02:42;97978.81;;;5.99
73685;BMP280;61985;51.070;14.064;2022-12-29T08:05:08;97988.56;;;6.10
73685;BMP280;61985;51.070;14.064;2022-12-29T08:07:33;97997.06;;;6.04
73685;BMP280;61985;51.070;14.064;2022-12-29T08:09:58;97992.19;;;5.99
73685;BMP280;61985;51.070;14.064;2022-12-29T08:12:24;98002.81;;;6.03
73685;BMP280;61985;51.070;14.064;2022-12-29T08:14:49;98003.16;;;6.05
73685;BMP280;61985;51.070;14.064;2022-12-29T08:17:14;97996.31;;;6.04
73685;BMP280;61985;51.070;14.064;2022-12-29T08:19:39;98009.09;;;6.16
73685;BMP280;61985;51.070;14.064;2022-12-29T08:22:06;98006.66;;;6.25
73685;BMP280;61985;51.070;14.064;2022-12-29T08:24:31;98013.28;;;6.41
73685;BMP280;61985;51.070;14.064;2022-12-29T08:26:57;98010.66;;;6.61
73685;BMP280;61985;51.070;14.064;2022-12-29T08:29:22;98016.50;;;6.76
73685;BMP280;61985;51.070;14.064;2022-12-29T08:31:47;98008.13;;;6.74
73685;BMP280;61985;51.070;14.064;2022-12-29T08:34:13;98015.66;;;6.79
73685;BMP280;61985;51.070;14.064;2022-12-29T08:36:38;98010.41;;;6.75
73685;BMP280;61985;51.070;14.064;2022-12-29T08:39:04;98020.00;;;6.73
73685;BMP280;61985;51.070;14.064;2022-12-29T08:41:29;98020.06;;;6.69
73685;BMP280;61985;51.070;14.064;2022-12-29T08:43:54;98020.47;;;6.68
73685;BMP280;61985;51.070;14.064;2022-12-29T08:46:20;98029.66;;;6.67
73685;BMP280;61985;51.070;14.064;2022-12-29T08:48:45;98017.81;;;6.68
73685;BMP280;61985;51.070;14.064;2022-12-29T08:51:10;98019.28;;;6.69
73685;BMP280;61985;51.070;14.064;2022-12-29T08:53:36;98029.56;;;6.74
73685;BMP280;61985;51.070;14.064;2022-12-29T08:56:02;98029.19;;;6.72
73685;BMP280;61985;51.070;14.064;2022-12-29T08:58:28;98026.91;;;6.70
73685;BMP280;61985;51.070;14.064;2022-12-29T09:00:54;98023.44;;;6.73
73685;BMP280;61985;51.070;14.064;2022-12-29T09:03:24;98017.19;;;6.80
73685;BMP280;61985;51.070;14.064;2022-12-29T09:05:51;98029.22;;;6.92
73685;BMP280;61985;51.070;14.064;2022-12-29T09:08:17;98032.69;;;6.92
73685;BMP280;61985;51.070;14.064;2022-12-29T09:10:43;98021.47;;;6.97
73685;BMP280;61985;51.070;14.064;2022-12-29T09:13:09;98024.47;;;6.99
73685;BMP280;61985;51.070;14.064;2022-12-29T09:15:34;98018.38;;;6.99
73685;BMP280;61985;51.070;14.064;2022-12-29T09:17:59;98013.16;;;6.92
73685;BMP280;61985;51.070;14.064;2022-12-29T09:20:25;98024.47;;;6.99
73685;BMP280;61985;51.070;14.064;2022-12-29T09:22:50;98025.38;;;6.93
73685;BMP280;61985;51.070;14.064;2022-12-29T09:25:16;98018.59;;;6.88
73685;BMP280;61985;51.070;14.064;2022-12-29T09:27:42;98019.31;;;6.89
73685;BMP280;61985;51.070;14.064;2022-12-29T09:30:09;98024.53;;;6.96
73685;BMP280;61985;51.070;14.064;2022-12-29T09:32:36;98012.53;;;7.04
73685;BMP280;61985;51.070;14.064;2022-12-29T09:35:01;98014.25;;;6.94
73685;BMP280;61985;51.070;14.064;2022-12-29T09:37:27;98011.25;;;6.92
73685;BMP280;61985;51.070;14.064;2022-12-29T09:39:52;98006.19;;;6.94
73685;BMP280;61985;51.070;14.064;2022-12-29T09:42:54;98012.41;;;6.91
73685;BMP280;61985;51.070;14.064;2022-12-29T09:45:29;98005.19;;;6.88
73685;BMP280;61985;51.070;14.064;2022-12-29T09:47:57;98003.41;;;6.81
73685;BMP280;61985;51.070;14.064;2022-12-29T09:50:33;98001.88;;;6.80
73685;BMP280;61985;51.070;14.064;2022-12-29T09:53:11;98005.41;;;6.77
73685;BMP280;61985;51.070;14.064;2022-12-29T09:55:49;98011.06;;;6.79
73685;BMP280;61985;51.070;14.064;2022-12-29T09:58:37;98005.94;;;6.89
73685;BMP280;61985;51.070;14.064;2022-12-29T10:03:55;98000.75;;;7.01
73685;BMP280;61985;51.070;14.064;2022-12-29T10:06:44;97996.66;;;7.13
73685;BMP280;61985;51.070;14.064;2022-12-29T10:09:33;97996.81;;;7.26
73685;BMP280;61985;51.070;14.064;2022-12-29T10:12:15;97995.50;;;7.51
73685;BMP280;61985;51.070;14.064;2022-12-29T10:20:43;98008.44;;;7.72
73685;BMP280;61985;51.070;14.064;2022-12-29T10:23:32;98001.06;;;7.76
73685;BMP280;61985;51.070;14.064;2022-12-29T10:26:01;98007.50;;;7.79
73685;BMP280;61985;51.070;14.064;2022-12-29T10:28:35;98006.25;;;7.84
73685;BMP280;61985;51.070;14.064;2022-12-29T10:31:06;98001.06;;;7.93
73685;BMP280;61985;51.070;14.064;2022-12-29T10:33:37;97998.69;;;8.11
73685;BMP280;61985;51.070;14.064;2022-12-29T10:36:16;97996.88;;;8.08
73685;BMP280;61985;51.070;14.064;2022-12-29T10:41:26;97998.03;;;8.24
73685;BMP280;61985;51.070;14.064;2022-12-29T10:43:54;97992.25;;;8.09
73685;BMP280;61985;51.070;14.064;2022-12-29T10:46:24;97990.50;;;8.02
73685;BMP280;61985;51.070;14.064;2022-12-29T10:48:50;97985.53;;;8.01
73685;BMP280;61985;51.070;14.064;2022-12-29T10:51:21;97987.03;;;8.02
73685;BMP280;61985;51.070;14.064;2022-12-29T10:54:11;97985.09;;;8.19
73685;BMP280;61985;51.070;14.064;2022-12-29T10:57:16;97997.38;;;8.20
73685;BMP280;61985;51.070;14.064;2022-12-29T10:59:35;97990.53;;;8.31
73685;BMP280;61985;51.070;14.064;2022-12-29T11:04:59;97982.44;;;8.48
73685;BMP280;61985;51.070;14.064;2022-12-29T11:07:27;97971.78;;;8.61
73685;BMP280;61985;51.070;14.064;2022-12-29T11:09:54;97965.44;;;8.67
73685;BMP280;61985;51.070;14.064;2022-12-29T11:14:45;97956.13;;;8.72
73685;BMP280;61985;51.070;14.064;2022-12-29T11:17:15;97952.25;;;8.86
73685;BMP280;61985;51.070;14.064;2022-12-29T11:19:42;97942.19;;;9.03
73685;BMP280;61985;51.070;14.064;2022-12-29T11:22:14;97941.13;;;9.13
73685;BMP280;61985;51.070;14.064;2022-12-29T11:24:46;97940.69;;;9.27
73685;BMP280;61985;51.070;14.064;2022-12-29T11:27:22;97940.47;;;9.47
73685;BMP280;61985;51.070;14.064;2022-12-29T11:29:52;97945.72;;;9.51
73685;BMP280;61985;51.070;14.064;2022-12-29T11:32:19;97941.97;;;9.48
73685;BMP280;61985;51.070;14.064;2022-12-29T11:34:45;97946.28;;;9.46
73685;BMP280;61985;51.070;14.064;2022-12-29T11:40:02;97935.84;;;9.48
73685;BMP280;61985;51.070;14.064;2022-12-29T11:42:38;97938.00;;;9.40
73685;BMP280;61985;51.070;14.064;2022-12-29T11:45:19;97949.94;;;9.26
73685;BMP280;61985;51.070;14.064;2022-12-29T11:47:49;97938.22;;;9.20
73685;BMP280;61985;51.070;14.064;2022-12-29T11:50:20;97938.09;;;9.11
73685;BMP280;61985;51.070;14.064;2022-12-29T11:52:47;97945.09;;;9.21
73685;BMP280;61985;51.070;14.064;2022-12-29T11:55:21;97948.09;;;9.23
73685;BMP280;61985;51.070;14.064;2022-12-29T11:57:50;97942.41;;;9.21
73685;BMP280;61985;51.070;14.064;2022-12-29T12:00:24;97934.88;;;9.16
73685;BMP280;61985;51.070;14.064;2022-12-29T12:02:58;97936.63;;;9.10
73685;BMP280;61985;51.070;14.064;2022-12-29T12:07:57;97937.22;;;8.88
73685;BMP280;61985;51.070;14.064;2022-12-29T12:10:30;97933.16;;;8.97
73685;BMP280;61985;51.070;14.064;2022-12-29T12:13:04;97933.56;;;8.95
73685;BMP280;61985;51.070;14.064;2022-12-29T12:15:41;97931.63;;;8.96
73685;BMP280;61985;51.070;14.064;2022-12-29T12:18:30;97928.81;;;8.86
73685;BMP280;61985;51.070;14.064;2022-12-29T12:21:03;97933.66;;;8.79
73685;BMP280;61985;51.070;14.064;2022-12-29T12:23:53;97920.66;;;8.77
73685;BMP280;61985;51.070;14.064;2022-12-29T12:26:32;97922.56;;;8.64
73685;BMP280;61985;51.070;14.064;2022-12-29T12:29:04;97914.19;;;8.62
73685;BMP280;61985;51.070;14.064;2022-12-29T12:34:06;97923.09;;;8.59
73685;BMP280;61985;51.070;14.064;2022-12-29T12:39:26;97928.88;;;8.57
73685;BMP280;61985;51.070;14.064;2022-12-29T12:42:18;97927.50;;;8.65
73685;BMP280;61985;51.070;14.064;2022-12-29T12:47:27;97925.28;;;8.89
73685;BMP280;61985;51.070;14.064;2022-12-29T12:50:18;97922.50;;;9.06
73685;BMP280;61985;51.070;14.064;2022-12-29T12:55:40;97930.22;;;9.42
73685;BMP280;61985;51.070;14.064;2022-12-29T13:01:11;97911.72;;;9.57
73685;BMP280;61985;51.070;14.064;2022-12-29T13:04:43;97908.06;;;9.51
73685;BMP280;61985;51.070;14.064;2022-12-29T13:06:54;97894.63;;;9.51
73685;BMP280;61985;51.070;14.064;2022-12-29T13:12:22;97894.41;;;9.58
73685;BMP280;61985;51.070;14.064;2022-12-29T13:15:03;97883.66;;;9.58
73685;BMP280;61985;51.070;14.064;2022-12-29T13:17:51;97900.31;;;9.66
73685;BMP280;61985;51.070;14.064;2022-12-29T13:20:32;97892.19;;;9.79
73685;BMP280;61985;51.070;14.064;2022-12-29T13:23:23;97894.13;;;9.78
73685;BMP280;61985;51.070;14.064;2022-12-29T13:26:01;97899.03;;;9.93
73685;BMP280;61985;51.070;14.064;2022-12-29T13:31:06;97896.97;;;9.97
73685;BMP280;61985;51.070;14.064;2022-12-29T13:33:49;97908.25;;;10.04
73685;BMP280;61985;51.070;14.064;2022-12-29T13:36:27;97912.81;;;10.17
73685;BMP280;61985;51.070;14.064;2022-12-29T13:39:10;97909.81;;;10.37
73685;BMP280;61985;51.070;14.064;2022-12-29T13:41:43;97911.13;;;10.54
73685;BMP280;61985;51.070;14.064;2022-12-29T13:44:39;97908.94;;;10.40
73685;BMP280;61985;51.070;14.064;2022-12-29T13:47:27;97910.25;;;10.35
73685;BMP280;61985;51.070;14.064;2022-12-29T13:49:54;97916.25;;;10.17
73685;BMP280;61985;51.070;14.064;2022-12-29T13:52:34;97912.31;;;10.09
73685;BMP280;61985;51.070;14.064;2022-12-29T13:58:01;97912.88;;;10.04
73685;BMP280;61985;51.070;14.064;2022-12-29T14:00:34;97919.81;;;9.92
73685;BMP280;61985;51.070;14.064;2022-12-29T14:05:37;97920.28;;;9.78
73685;BMP280;61985;51.070;14.064;2022-12-29T14:08:04;97931.19;;;9.61
73685;BMP280;61985;51.070;14.064;2022-12-29T14:10:35;97916.13;;;9.51
73685;BMP280;61985;51.070;14.064;2022-12-29T14:13:12;97919.06;;;9.57
73685;BMP280;61985;51.070;14.064;2022-12-29T14:15:39;97915.69;;;9.52
73685;BMP280;61985;51.070;14.064;2022-12-29T14:18:14;97922.06;;;9.46
73685;BMP280;61985;51.070;14.064;2022-12-29T14:20:54;97923.25;;;9.45
73685;BMP280;61985;51.070;14.064;2022-12-29T14:23:34;97921.97;;;9.37
73685;BMP280;61985;51.070;14.064;2022-12-29T14:28:54;97926.72;;;9.07
73685;BMP280;61985;51.070;14.064;2022-12-29T14:36:40;97933.47;;;9.24
73685;BMP280;61985;51.070;14.064;2022-12-29T14:39:35;97932.19;;;9.16
73685;BMP280;61985;51.070;14.064;2022-12-29T14:47:41;97940.25;;;8.90
73685;BMP280;61985;51.070;14.064;2022-12-29T14:52:55;97937.88;;;8.92
73685;BMP280;61985;51.070;14.064;2022-12-29T14:55:43;97939.19;;;9.01
73685;BMP280;61985;51.070;14.064;2022-12-29T15:00:51;97929.94;;;9.27
73685;BMP280;61985;51.070;14.064;2022-12-29T15:03:24;97925.94;;;9.32
73685;BMP280;61985;51.070;14.064;2022-12-29T15:05:55;97922.50;;;9.19
73685;BMP280;61985;51.070;14.064;2022-12-29T15:08:27;97930.78;;;9.24
73685;BMP280;61985;51.070;14.064;2022-12-29T15:11:10;97932.41;;;9.22
73685;BMP280;61985;51.070;14.064;2022-12-29T15:13:39;97933.69;;;9.30
73685;BMP280;61985;51.070;14.064;2022-12-29T15:16:33;97936.59;;;9.23
73685;BMP280;61985;51.070;14.064;2022-12-29T15:19:01;97936.47;;;9.26
73685;BMP280;61985;51.070;14.064;2022-12-29T15:21:29;97938.47;;;9.13
73685;BMP280;61985;51.070;14.064;2022-12-29T15:23:55;97926.47;;;9.14
73685;BMP280;61985;51.070;14.064;2022-12-29T15:26:21;97934.53;;;9.14
73685;BMP280;61985;51.070;14.064;2022-12-29T15:28:51;97947.34;;;9.23
73685;BMP280;61985;51.070;14.064;2022-12-29T15:31:22;97950.78;;;9.23
73685;BMP280;61985;51.070;14.064;2022-12-29T15:34:01;97940.47;;;9.09
73685;BMP280;61985;51.070;14.064;2022-12-29T15:36:29;97951.75;;;9.04
73685;BMP280;61985;51.070;14.064;2022-12-29T15:38:55;97950.38;;;8.99
73685;BMP280;61985;51.070;14.064;2022-12-29T15:44:11;97945.19;;;9.05
73685;BMP280;61985;51.070;14.064;2022-12-29T15:46:38;97944.44;;;9.04
73685;BMP280;61985;51.070;14.064;2022-12-29T15:49:08;97954.03;;;9.18
73685;BMP280;61985;51.070;14.064;2022-12-29T15:51:37;97960.81;;;9.10
73685;BMP280;61985;51.070;14.064;2022-12-29T15:54:04;97967.44;;;8.92
73685;BMP280;61985;51.070;14.064;2022-12-29T15:56:31;97975.88;;;8.78
73685;BMP280;61985;51.070;14.064;2022-12-29T15:58:57;97982.44;;;8.77
73685;BMP280;61985;51.070;14.064;2022-12-29T16:01:30;97983.72;;;8.72
73685;BMP280;61985;51.070;14.064;2022-12-29T16:03:58;97992.38;;;8.64
73685;BMP280;61985;51.070;14.064;2022-12-29T16:06:35;98002.81;;;9.04
73685;BMP280;61985;51.070;14.064;2022-12-29T16:09:15;97998.66;;;9.41
73685;BMP280;61985;51.070;14.064;2022-12-29T16:11:45;97999.41;;;9.67